Lake Cicott, IN (46942)

9:57 AM EST on November 27, 2014 (GMT -0500)
Logansport Municipal | Change Station
CLOSE
Current Station
Airport
Location: Logansport,
Elevation: 738 ft
Nearby Weather Stations

Elev 738 ft 40.71 °N, 86.37 °W | Updated 22 minutes ago

Overcast
Overcast
28 °F
Feels Like 19 °F
N
10
Wind Variable Wind from WNW

Today
High -- | Low -- °F
--% Chance of Precip.
Yesterday
High -- | Low -- °F
Precip. -- in
7:46 AM 5:20 PM
Waxing Crescent, 30% visible
Pressure 30.28 in
Visibility 4.0 miles
Clouds Scattered Clouds 1100 ft
Scattered Clouds 3200 ft
Overcast 3800 ft
Windchill 19 °F
Dew Point 23 °F
Humidity 80%
Rainfall 0.00 in
Snow Depth Not available.
UV 0 out of 12
Pollen .10 out of 12
Air Quality Not available.
Flu Activity Not available.
METAR KGGP 271435Z AUTO 29009KT 4SM HZ SCT011 SCT032 OVC038 M02/M05 A3028 RMK AO2

More Conditions Fewer Conditions

Pressure 30.28 in
Visibility 4.0 miles
Clouds Scattered Clouds 1100 ft
Scattered Clouds 3200 ft
Overcast 3800 ft
Windchill 19 °F
Dew Point 23 °F
Humidity 80%
Rainfall 0.00 in
Snow Depth Not available.
UV 0 out of 12
Pollen .10 out of 12
Air Quality Not available.
Flu Activity Not available.
METAR KGGP 271435Z AUTO 29009KT 4SM HZ SCT011 SCT032 OVC038 M02/M05 A3028 RMK AO2

More Conditions Fewer Conditions

10-Day Weather Forecast

Almanac

Astronomy

Nov. 27, 2014 Rise Set
Actual Time
Civil Twilight
Nautical Twilight
Astronomical Twilight
Moon
Length of Visible Light
Length of Day
Tomorrow will be .
, % of the Moon is Illuminated

Today's Extremes

State Highs State Lows

Community

WunderPhotos

Upload Photos

1,774,005 photos uploaded!

WunderBlogs® & News

Nearby

Air Quality

  Air Quality AQ Index Pollutant
Not available.

Snow Depth

Station Depth Elevation

Earthquake Activity

City Distance Mag. Time & Date
Minimum magnitude displayed is 2.5.

Coastal Water Temperatures

Place Temperature

Nearby Weather Stations